Sunburg, Minnesota
Current Conditions -  °F | °C
As of 12:35 AM on Friday 19 Dec 2014 (Local Time) from KBDH Reporting Station
Overcast Overcast  
Wind Chill: 13°   Ceiling: 2000
Heat Index: 23°   Visibility: 7mi
Dew Point: 19°   Wind: 9mph
Humidity: 86%   Direction: 140°SE
Pressure: 30.23"   Gusts: NA
Location:  45.35°N, 95.24°W
Report Text: KBDH 190635Z AUTO 14008KT 7SM BKN020 OVC029 M05/M07 A3023 RMK AO2
Loading
Personal Weather Stations






























Interactive Weather Map New forecast layout! Learn more

10-Day Weather Forecast

Advertisements
Track Severe Weather on mobile